createdAt,value
2019-02-10T00:05:41.631Z,54.7
2019-02-10T00:20:49.044Z,55.3
2019-02-10T00:36:06.632Z,55.7
2019-02-10T00:51:19.874Z,55.5
2019-02-10T01:06:41.762Z,55.4
2019-02-10T01:21:46.130Z,55
2019-02-10T01:36:59.393Z,54.8
2019-02-10T01:52:12.425Z,55.2
2019-02-10T02:07:25.779Z,55.8
2019-02-10T02:22:38.706Z,55.6
2019-02-10T02:37:45.689Z,54.5
2019-02-10T02:53:04.859Z,54.4
2019-02-10T03:08:18.009Z,54.8
2019-02-10T03:23:30.969Z,55.6
2019-02-10T03:38:43.936Z,54.2
2019-02-10T03:53:56.978Z,53.6
2019-02-10T04:09:10.036Z,53.2
2019-02-10T04:24:23.083Z,52.8
2019-02-10T04:39:36.102Z,52.9
2019-02-10T04:54:42.188Z,53.5
2019-02-10T05:10:02.138Z,53.6
2019-02-10T05:25:15.238Z,53.3
2019-02-10T05:40:28.175Z,53.3
2019-02-10T05:55:41.003Z,55.5
2019-02-10T06:10:53.785Z,57.8
2019-02-10T06:26:06.654Z,59.1
2019-02-10T06:41:19.364Z,60
2019-02-10T06:56:32.050Z,60.2
2019-02-10T07:11:38.248Z,59.9
2019-02-10T07:26:57.937Z,59.4
2019-02-10T07:42:10.490Z,59.9
2019-02-10T07:57:23.429Z,57.5
2019-02-10T08:12:36.515Z,56.4
2019-02-10T08:27:50.011Z,53
2019-02-10T08:43:03.666Z,51.2
2019-02-10T08:58:17.174Z,50
2019-02-10T09:13:30.866Z,48.8
2019-02-10T09:28:37.569Z,48
2019-02-10T09:43:58.397Z,47.4
2019-02-10T09:59:12.199Z,61.2
2019-02-10T10:14:31.166Z,50.4
2019-02-10T10:29:39.873Z,52.7
2019-02-10T10:44:53.902Z,48.6
2019-02-10T11:00:08.130Z,49
2019-02-10T11:15:22.096Z,47.8
2019-02-10T11:30:36.217Z,50.3
2019-02-10T11:45:44.926Z,41.5
2019-02-10T12:01:04.254Z,43.8
2019-02-10T12:16:18.184Z,45.2
2019-02-10T12:31:32.098Z,45.8
2019-02-10T12:46:46.097Z,45.9
2019-02-10T13:02:00.171Z,44.9
2019-02-10T13:17:14.594Z,43.5
2019-02-10T13:32:28.669Z,42
2019-02-10T13:47:43.081Z,39.5
2019-02-10T14:02:50.876Z,39.1
2019-02-10T14:18:12.190Z,37
2019-02-10T14:33:26.767Z,37.3
2019-02-10T14:48:41.377Z,36.8
2019-02-10T15:03:56.046Z,37.4
2019-02-10T15:19:09.597Z,36
2019-02-10T15:34:25.419Z,36.1
2019-02-10T15:49:40.002Z,38
2019-02-10T16:04:54.706Z,38.9
2019-02-10T16:20:00.440Z,39
2019-02-10T16:35:23.934Z,39.4
2019-02-10T16:50:38.597Z,39.1
2019-02-10T17:05:53.273Z,39.2
2019-02-10T17:21:07.704Z,42.3
2019-02-10T17:36:19.364Z,38.6
2019-02-10T17:51:37.271Z,38.3
2019-02-10T18:06:51.599Z,39.4
2019-02-10T18:22:06.142Z,42.3
2019-02-10T18:37:09.978Z,43.6
2019-02-10T18:52:35.018Z,46.2
2019-02-10T19:07:49.476Z,47.4
2019-02-10T19:23:03.547Z,48.2
2019-02-10T19:38:17.794Z,50
2019-02-10T19:53:27.795Z,49.5
2019-02-10T20:08:46.219Z,50.5
2019-02-10T20:24:00.396Z,51.2
2019-02-10T20:39:14.504Z,51.3
2019-02-10T20:54:17.090Z,52.5
2019-02-10T21:09:42.509Z,51.7
2019-02-10T21:24:56.666Z,51.5
2019-02-10T21:40:10.330Z,51.8
2019-02-10T21:55:24.368Z,51.1
2019-02-10T22:10:32.446Z,52.6
2019-02-10T22:25:51.409Z,54.1
2019-02-10T22:41:05.050Z,53.5
2019-02-10T22:56:18.518Z,54.4
2019-02-10T23:11:31.883Z,54.3
2019-02-10T23:26:46.573Z,54.1
2019-02-10T23:41:58.426Z,53.7
2019-02-10T23:57:11.691Z,52.4
